sensor_id;sensor_type;location;lat;lon;timestamp;pressure;altitude;pressure_sealevel;temperature;humidity
77161;BME280;66135;0.000;0.000;2023-04-03T00:01:23;102822.47;;;18.55;59.08
77161;BME280;66135;0.000;0.000;2023-04-03T00:03:49;102816.22;;;18.55;59.14
77161;BME280;66135;0.000;0.000;2023-04-03T00:06:15;102816.22;;;18.55;59.03
77161;BME280;66135;0.000;0.000;2023-04-03T00:08:41;102819.63;;;18.57;58.72
77161;BME280;66135;0.000;0.000;2023-04-03T00:11:07;102818.78;;;18.56;58.79
77161;BME280;66135;0.000;0.000;2023-04-03T00:13:33;102824.22;;;18.56;58.82
77161;BME280;66135;0.000;0.000;2023-04-03T00:15:59;102814.34;;;18.55;58.75
77161;BME280;66135;0.000;0.000;2023-04-03T00:18:24;102826.19;;;18.54;58.91
77161;BME280;66135;0.000;0.000;2023-04-03T00:20:50;102820.91;;;18.53;58.79
77161;BME280;66135;0.000;0.000;2023-04-03T00:23:15;102824.72;;;18.50;58.79
77161;BME280;66135;0.000;0.000;2023-04-03T00:25:41;102828.31;;;18.51;58.71
77161;BME280;66135;0.000;0.000;2023-04-03T00:28:07;102826.56;;;18.50;58.70
77161;BME280;66135;0.000;0.000;2023-04-03T00:30:33;102831.16;;;18.49;58.66
77161;BME280;66135;0.000;0.000;2023-04-03T00:32:58;102827.56;;;18.49;58.87
77161;BME280;66135;0.000;0.000;2023-04-03T00:35:25;102826.81;;;18.47;58.79
77161;BME280;66135;0.000;0.000;2023-04-03T00:37:52;102819.69;;;18.46;58.78
77161;BME280;66135;0.000;0.000;2023-04-03T00:40:19;102826.09;;;18.45;58.89
77161;BME280;66135;0.000;0.000;2023-04-03T00:42:46;102833.41;;;18.44;58.93
77161;BME280;66135;0.000;0.000;2023-04-03T00:47:41;102834.63;;;18.40;58.53
77161;BME280;66135;0.000;0.000;2023-04-03T00:50:07;102828.31;;;18.40;58.58
77161;BME280;66135;0.000;0.000;2023-04-03T00:52:33;102833.72;;;18.40;58.58
77161;BME280;66135;0.000;0.000;2023-04-03T00:55:02;102836.56;;;18.38;58.61
77161;BME280;66135;0.000;0.000;2023-04-03T00:57:30;102832.16;;;18.37;58.53
77161;BME280;66135;0.000;0.000;2023-04-03T01:00:03;102831.16;;;18.38;58.54
77161;BME280;66135;0.000;0.000;2023-04-03T01:02:29;102843.97;;;18.36;58.61
77161;BME280;66135;0.000;0.000;2023-04-03T01:04:55;102838.56;;;18.36;58.66
77161;BME280;66135;0.000;0.000;2023-04-03T01:07:23;102842.28;;;18.35;58.55
77161;BME280;66135;0.000;0.000;2023-04-03T01:09:52;102843.25;;;18.34;58.66
77161;BME280;66135;0.000;0.000;2023-04-03T01:14:49;102849.94;;;18.30;58.63
77161;BME280;66135;0.000;0.000;2023-04-03T01:17:42;102848.19;;;18.29;58.44
77161;BME280;66135;0.000;0.000;2023-04-03T01:25:43;102848.31;;;18.28;58.37
77161;BME280;66135;0.000;0.000;2023-04-03T01:28:30;102846.84;;;18.24;58.50
77161;BME280;66135;0.000;0.000;2023-04-03T01:33:51;102843.28;;;18.23;58.47
77161;BME280;66135;0.000;0.000;2023-04-03T01:36:28;102847.84;;;18.23;58.19
77161;BME280;66135;0.000;0.000;2023-04-03T01:38:55;102844.25;;;18.22;58.66
77161;BME280;66135;0.000;0.000;2023-04-03T01:41:22;102856.13;;;18.21;58.69
77161;BME280;66135;0.000;0.000;2023-04-03T01:43:48;102843.53;;;18.20;58.50
77161;BME280;66135;0.000;0.000;2023-04-03T01:46:14;102844.78;;;18.16;58.44
77161;BME280;66135;0.000;0.000;2023-04-03T01:48:40;102849.34;;;18.16;58.76
77161;BME280;66135;0.000;0.000;2023-04-03T01:51:06;102842.06;;;18.16;58.54
77161;BME280;66135;0.000;0.000;2023-04-03T01:53:32;102848.47;;;18.15;58.48
77161;BME280;66135;0.000;0.000;2023-04-03T01:55:57;102852.06;;;18.16;58.53
77161;BME280;66135;0.000;0.000;2023-04-03T01:58:22;102850.34;;;18.15;58.24
77161;BME280;66135;0.000;0.000;2023-04-03T02:00:48;102849.59;;;18.13;58.60
77161;BME280;66135;0.000;0.000;2023-04-03T02:03:13;102847.75;;;18.13;58.46
77161;BME280;66135;0.000;0.000;2023-04-03T02:05:40;102852.56;;;18.10;58.28
77161;BME280;66135;0.000;0.000;2023-04-03T02:08:05;102849.88;;;18.10;58.34
77161;BME280;66135;0.000;0.000;2023-04-03T02:10:31;102848.13;;;18.09;58.50
77161;BME280;66135;0.000;0.000;2023-04-03T02:12:56;102851.97;;;18.06;58.27
77161;BME280;66135;0.000;0.000;2023-04-03T02:15:21;102851.97;;;18.06;58.44
77161;BME280;66135;0.000;0.000;2023-04-03T02:17:47;102853.94;;;18.04;58.54
77161;BME280;66135;0.000;0.000;2023-04-03T02:20:12;102853.94;;;18.04;58.13
77161;BME280;66135;0.000;0.000;2023-04-03T02:22:38;102851.34;;;18.03;58.35
77161;BME280;66135;0.000;0.000;2023-04-03T02:25:03;102855.78;;;18.04;58.20
77161;BME280;66135;0.000;0.000;2023-04-03T02:27:29;102854.06;;;18.03;58.57
77161;BME280;66135;0.000;0.000;2023-04-03T02:29:55;102857.75;;;18.02;58.41
77161;BME280;66135;0.000;0.000;2023-04-03T02:32:20;102858.88;;;17.99;58.36
77161;BME280;66135;0.000;0.000;2023-04-03T02:34:45;102858.13;;;17.97;58.49
77161;BME280;66135;0.000;0.000;2023-04-03T02:37:11;102860.97;;;17.95;58.36
77161;BME280;66135;0.000;0.000;2023-04-03T02:39:36;102857.25;;;17.96;58.36
77161;BME280;66135;0.000;0.000;2023-04-03T02:42:02;102858.38;;;17.94;58.33
77161;BME280;66135;0.000;0.000;2023-04-03T02:44:27;102862.94;;;17.93;58.37
77161;BME280;66135;0.000;0.000;2023-04-03T02:46:53;102863.78;;;17.94;58.64
77161;BME280;66135;0.000;0.000;2023-04-03T02:49:18;102859.38;;;17.93;58.44
77161;BME280;66135;0.000;0.000;2023-04-03T02:51:44;102868.38;;;17.93;58.18
77161;BME280;66135;0.000;0.000;2023-04-03T02:54:09;102868.50;;;17.92;58.29
77161;BME280;66135;0.000;0.000;2023-04-03T02:56:34;102872.31;;;17.89;58.37
77161;BME280;66135;0.000;0.000;2023-04-03T02:59:00;102874.03;;;17.90;58.24
77161;BME280;66135;0.000;0.000;2023-04-03T03:01:25;102879.69;;;17.87;58.55
77161;BME280;66135;0.000;0.000;2023-04-03T03:03:53;102877.88;;;17.88;58.19
77161;BME280;66135;0.000;0.000;2023-04-03T03:06:19;102877.00;;;17.87;58.31
77161;BME280;66135;0.000;0.000;2023-04-03T03:08:45;102869.84;;;17.86;58.34
77161;BME280;66135;0.000;0.000;2023-04-03T03:11:10;102876.38;;;17.84;58.40
77161;BME280;66135;0.000;0.000;2023-04-03T03:13:36;102877.13;;;17.86;58.56
77161;BME280;66135;0.000;0.000;2023-04-03T03:16:02;102871.22;;;17.81;58.49
77161;BME280;66135;0.000;0.000;2023-04-03T03:18:28;102875.63;;;17.82;58.38
77161;BME280;66135;0.000;0.000;2023-04-03T03:20:58;102871.22;;;17.81;58.41
77161;BME280;66135;0.000;0.000;2023-04-03T03:23:26;102869.38;;;17.81;58.39
77161;BME280;66135;0.000;0.000;2023-04-03T03:26:04;102872.31;;;17.78;58.45
77161;BME280;66135;0.000;0.000;2023-04-03T03:28:30;102866.88;;;17.78;58.18
77161;BME280;66135;0.000;0.000;2023-04-03T03:30:57;102876.75;;;17.79;58.19
77161;BME280;66135;0.000;0.000;2023-04-03T03:33:22;102875.28;;;17.75;58.31
77161;BME280;66135;0.000;0.000;2023-04-03T03:35:48;102873.56;;;17.74;58.36
77161;BME280;66135;0.000;0.000;2023-04-03T03:38:14;102883.28;;;17.77;58.29
77161;BME280;66135;0.000;0.000;2023-04-03T03:40:39;102875.28;;;17.75;58.27
77161;BME280;66135;0.000;0.000;2023-04-03T03:43:05;102875.41;;;17.74;58.23
77161;BME280;66135;0.000;0.000;2023-04-03T03:45:30;102880.06;;;17.72;58.39
77161;BME280;66135;0.000;0.000;2023-04-03T03:47:56;102883.66;;;17.72;58.34
77161;BME280;66135;0.000;0.000;2023-04-03T03:50:21;102889.09;;;17.72;58.24
77161;BME280;66135;0.000;0.000;2023-04-03T03:52:47;102889.34;;;17.69;58.21
77161;BME280;66135;0.000;0.000;2023-04-03T03:55:12;102882.91;;;17.70;58.24
77161;BME280;66135;0.000;0.000;2023-04-03T03:57:37;102901.28;;;17.67;58.38
77161;BME280;66135;0.000;0.000;2023-04-03T04:00:04;102894.84;;;17.68;58.32
77161;BME280;66135;0.000;0.000;2023-04-03T04:02:32;102898.56;;;17.67;58.34
77161;BME280;66135;0.000;0.000;2023-04-03T04:04:57;102896.84;;;17.66;58.34
77161;BME280;66135;0.000;0.000;2023-04-03T04:07:23;102897.81;;;17.65;58.13
77161;BME280;66135;0.000;0.000;2023-04-03T04:09:48;102891.44;;;17.66;58.08
77161;BME280;66135;0.000;0.000;2023-04-03T04:12:14;102897.31;;;17.60;58.34
77161;BME280;66135;0.000;0.000;2023-04-03T04:14:41;102891.78;;;17.61;57.90
77161;BME280;66135;0.000;0.000;2023-04-03T04:17:06;102894.47;;;17.61;57.88
77161;BME280;66135;0.000;0.000;2023-04-03T04:19:31;102894.75;;;17.58;57.92
77161;BME280;66135;0.000;0.000;2023-04-03T04:21:58;102900.16;;;17.58;57.90
77161;BME280;66135;0.000;0.000;2023-04-03T04:24:23;102898.53;;;17.56;57.83
77161;BME280;66135;0.000;0.000;2023-04-03T04:26:49;102889.56;;;17.55;57.98
77161;BME280;66135;0.000;0.000;2023-04-03T04:29:14;102893.13;;;17.56;58.06
77161;BME280;66135;0.000;0.000;2023-04-03T04:31:40;102887.56;;;17.57;57.76
77161;BME280;66135;0.000;0.000;2023-04-03T04:34:05;102891.28;;;17.56;57.50
77161;BME280;66135;0.000;0.000;2023-04-03T04:36:31;102888.69;;;17.55;57.74
77161;BME280;66135;0.000;0.000;2023-04-03T04:38:56;102885.84;;;17.56;57.59
77161;BME280;66135;0.000;0.000;2023-04-03T04:41:23;102895.81;;;17.56;57.93
77161;BME280;66135;0.000;0.000;2023-04-03T04:43:50;102895.13;;;17.54;57.85
77161;BME280;66135;0.000;0.000;2023-04-03T04:46:15;102903.34;;;17.52;58.13
77161;BME280;66135;0.000;0.000;2023-04-03T04:48:41;102908.88;;;17.51;58.08
77161;BME280;66135;0.000;0.000;2023-04-03T04:51:07;102909.88;;;17.50;58.14
77161;BME280;66135;0.000;0.000;2023-04-03T04:53:32;102909.75;;;17.51;58.45
77161;BME280;66135;0.000;0.000;2023-04-03T04:55:58;102910.63;;;17.52;58.02
77161;BME280;66135;0.000;0.000;2023-04-03T04:58:23;102921.69;;;17.49;58.23
77161;BME280;66135;0.000;0.000;2023-04-03T05:00:49;102926.25;;;17.48;58.34
77161;BME280;66135;0.000;0.000;2023-04-03T05:03:14;102916.47;;;17.46;58.37
77161;BME280;66135;0.000;0.000;2023-04-03T05:05:40;102922.91;;;17.45;58.17
77161;BME280;66135;0.000;0.000;2023-04-03T05:08:05;102920.19;;;17.45;58.43
77161;BME280;66135;0.000;0.000;2023-04-03T05:10:31;102921.16;;;17.44;58.25
77161;BME280;66135;0.000;0.000;2023-04-03T05:12:57;102928.31;;;17.45;58.39
77161;BME280;66135;0.000;0.000;2023-04-03T05:15:22;102927.56;;;17.43;58.11
77161;BME280;66135;0.000;0.000;2023-04-03T05:17:48;102924.13;;;17.41;58.23
77161;BME280;66135;0.000;0.000;2023-04-03T05:20:13;102918.56;;;17.42;58.35
77161;BME280;66135;0.000;0.000;2023-04-03T05:22:38;102926.81;;;17.41;58.17
77161;BME280;66135;0.000;0.000;2023-04-03T05:25:05;102932.38;;;17.39;58.14
77161;BME280;66135;0.000;0.000;2023-04-03T05:27:30;102924.13;;;17.41;58.09
77161;BME280;66135;0.000;0.000;2023-04-03T05:29:56;102935.94;;;17.40;58.30
77161;BME280;66135;0.000;0.000;2023-04-03T05:32:23;102946.78;;;17.40;58.25
77161;BME280;66135;0.000;0.000;2023-04-03T05:34:50;102941.56;;;17.37;57.92
77161;BME280;66135;0.000;0.000;2023-04-03T05:37:17;102949.72;;;17.37;58.11
77161;BME280;66135;0.000;0.000;2023-04-03T05:39:42;102947.13;;;17.35;57.95
77161;BME280;66135;0.000;0.000;2023-04-03T05:42:08;102950.81;;;17.34;58.01
77161;BME280;66135;0.000;0.000;2023-04-03T05:44:33;102954.50;;;17.33;58.25
77161;BME280;66135;0.000;0.000;2023-04-03T05:46:59;102943.66;;;17.33;58.36
77161;BME280;66135;0.000;0.000;2023-04-03T05:49:25;102949.19;;;17.32;58.18
77161;BME280;66135;0.000;0.000;2023-04-03T05:51:50;102942.91;;;17.31;58.38
77161;BME280;66135;0.000;0.000;2023-04-03T05:54:30;102952.03;;;17.30;57.92
77161;BME280;66135;0.000;0.000;2023-04-03T05:56:55;102953.75;;;17.31;58.06
77161;BME280;66135;0.000;0.000;2023-04-03T05:59:21;102941.31;;;17.29;58.18
77161;BME280;66135;0.000;0.000;2023-04-03T06:01:47;102948.81;;;17.25;58.42
77161;BME280;66135;0.000;0.000;2023-04-03T06:04:13;102954.13;;;17.27;58.55
77161;BME280;66135;0.000;0.000;2023-04-03T06:06:57;102953.50;;;17.23;58.76
77161;BME280;66135;0.000;0.000;2023-04-03T06:09:25;102946.00;;;17.27;58.77
77161;BME280;66135;0.000;0.000;2023-04-03T06:11:52;102953.38;;;17.25;58.45
77161;BME280;66135;0.000;0.000;2023-04-03T06:14:17;102952.75;;;17.21;58.92
77161;BME280;66135;0.000;0.000;2023-04-03T06:16:43;102954.47;;;17.22;58.55
77161;BME280;66135;0.000;0.000;2023-04-03T06:19:09;102965.44;;;17.21;58.87
77161;BME280;66135;0.000;0.000;2023-04-03T06:21:35;102961.09;;;17.18;58.96
77161;BME280;66135;0.000;0.000;2023-04-03T06:24:02;102959.41;;;17.17;59.09
77161;BME280;66135;0.000;0.000;2023-04-03T06:26:27;102966.53;;;17.18;59.21
77161;BME280;66135;0.000;0.000;2023-04-03T06:28:53;102963.19;;;17.15;59.63
77161;BME280;66135;0.000;0.000;2023-04-03T06:31:19;102971.31;;;17.15;59.56
77161;BME280;66135;0.000;0.000;2023-04-03T06:33:45;102971.81;;;17.20;59.71
77161;BME280;66135;0.000;0.000;2023-04-03T06:36:11;102973.44;;;17.22;59.62
77161;BME280;66135;0.000;0.000;2023-04-03T06:38:37;102971.56;;;17.23;59.63
77161;BME280;66135;0.000;0.000;2023-04-03T06:41:03;102973.31;;;17.24;59.70
77161;BME280;66135;0.000;0.000;2023-04-03T06:43:28;102977.75;;;17.25;59.75
77161;BME280;66135;0.000;0.000;2023-04-03T06:45:54;102980.56;;;17.23;59.57
77161;BME280;66135;0.000;0.000;2023-04-03T06:48:19;102983.41;;;17.22;60.00
77161;BME280;66135;0.000;0.000;2023-04-03T06:50:45;102979.06;;;17.19;59.54
77161;BME280;66135;0.000;0.000;2023-04-03T06:53:11;102989.28;;;17.16;59.76
77161;BME280;66135;0.000;0.000;2023-04-03T06:55:37;102982.38;;;17.12;59.80
77161;BME280;66135;0.000;0.000;2023-04-03T06:58:03;102979.69;;;17.12;59.75
77161;BME280;66135;0.000;0.000;2023-04-03T07:00:29;102993.09;;;17.13;59.70
77161;BME280;66135;0.000;0.000;2023-04-03T07:02:56;102988.56;;;17.14;59.71
77161;BME280;66135;0.000;0.000;2023-04-03T07:05:22;102996.88;;;17.11;59.46
77161;BME280;66135;0.000;0.000;2023-04-03T07:07:48;102992.34;;;17.11;59.58
77161;BME280;66135;0.000;0.000;2023-04-03T07:10:15;102986.41;;;17.06;59.22
77161;BME280;66135;0.000;0.000;2023-04-03T07:12:40;102998.13;;;17.07;59.48
77161;BME280;66135;0.000;0.000;2023-04-03T07:15:06;103001.91;;;17.04;59.45
77161;BME280;66135;0.000;0.000;2023-04-03T07:17:33;103002.78;;;17.05;59.19
77161;BME280;66135;0.000;0.000;2023-04-03T07:19:59;103003.00;;;17.02;59.29
77161;BME280;66135;0.000;0.000;2023-04-03T07:22:24;102998.56;;;17.01;59.51
77161;BME280;66135;0.000;0.000;2023-04-03T07:24:50;103001.28;;;17.01;59.44
77161;BME280;66135;0.000;0.000;2023-04-03T07:27:15;102997.81;;;16.99;59.41
77161;BME280;66135;0.000;0.000;2023-04-03T07:29:42;103003.22;;;16.99;59.54
77161;BME280;66135;0.000;0.000;2023-04-03T07:32:08;103007.78;;;16.98;59.53
77161;BME280;66135;0.000;0.000;2023-04-03T07:34:33;103009.66;;;16.98;59.50
77161;BME280;66135;0.000;0.000;2023-04-03T07:36:59;103006.94;;;16.98;59.59
77161;BME280;66135;0.000;0.000;2023-04-03T07:39:25;103007.78;;;16.98;59.48
77161;BME280;66135;0.000;0.000;2023-04-03T07:41:50;103003.34;;;16.97;59.49
77161;BME280;66135;0.000;0.000;2023-04-03T07:44:16;103014.31;;;16.96;59.58
77161;BME280;66135;0.000;0.000;2023-04-03T07:46:42;103009.84;;;16.95;59.51
77161;BME280;66135;0.000;0.000;2023-04-03T07:49:07;103009.84;;;16.95;59.60
77161;BME280;66135;0.000;0.000;2023-04-03T07:51:33;103019.72;;;16.96;59.56
77161;BME280;66135;0.000;0.000;2023-04-03T07:53:58;103016.13;;;16.95;59.53
77161;BME280;66135;0.000;0.000;2023-04-03T07:56:24;103016.25;;;16.94;59.39
77161;BME280;66135;0.000;0.000;2023-04-03T07:58:50;103012.69;;;16.93;59.53
77161;BME280;66135;0.000;0.000;2023-04-03T08:01:16;103016.25;;;16.94;59.39
77161;BME280;66135;0.000;0.000;2023-04-03T08:03:41;103022.78;;;16.91;59.65
77161;BME280;66135;0.000;0.000;2023-04-03T08:06:08;103014.66;;;16.91;59.51
77161;BME280;66135;0.000;0.000;2023-04-03T08:08:34;103014.66;;;16.91;59.60
77161;BME280;66135;0.000;0.000;2023-04-03T08:11:00;103014.75;;;16.89;59.70
77161;BME280;66135;0.000;0.000;2023-04-03T08:13:28;103006.88;;;16.86;59.52
77161;BME280;66135;0.000;0.000;2023-04-03T08:15:53;103023.09;;;16.86;59.65
77161;BME280;66135;0.000;0.000;2023-04-03T08:18:19;103021.28;;;16.87;59.37
77161;BME280;66135;0.000;0.000;2023-04-03T08:20:47;103019.44;;;16.88;59.62
77161;BME280;66135;0.000;0.000;2023-04-03T08:23:12;103017.44;;;16.89;59.59
77161;BME280;66135;0.000;0.000;2023-04-03T08:25:42;103011.31;;;16.88;59.58
77161;BME280;66135;0.000;0.000;2023-04-03T08:28:11;103024.09;;;16.85;59.65
77161;BME280;66135;0.000;0.000;2023-04-03T08:30:40;103022.16;;;16.88;59.62
77161;BME280;66135;0.000;0.000;2023-04-03T08:33:06;103012.28;;;16.86;59.58
77161;BME280;66135;0.000;0.000;2023-04-03T08:35:32;103013.38;;;16.84;59.56
77161;BME280;66135;0.000;0.000;2023-04-03T08:37:57;103020.50;;;16.85;59.72
77161;BME280;66135;0.000;0.000;2023-04-03T08:40:23;103028.75;;;16.83;59.69
77161;BME280;66135;0.000;0.000;2023-04-03T08:43:22;103033.28;;;16.83;59.69
77161;BME280;66135;0.000;0.000;2023-04-03T08:45:55;103026.06;;;16.83;59.64
77161;BME280;66135;0.000;0.000;2023-04-03T08:48:41;103035.88;;;16.84;59.74
77161;BME280;66135;0.000;0.000;2023-04-03T08:51:16;103036.88;;;16.83;59.67
77161;BME280;66135;0.000;0.000;2023-04-03T08:53:48;103039.59;;;16.83;59.69
77161;BME280;66135;0.000;0.000;2023-04-03T08:56:18;103035.25;;;16.81;59.85
77161;BME280;66135;0.000;0.000;2023-04-03T08:58:58;103027.13;;;16.81;59.82
77161;BME280;66135;0.000;0.000;2023-04-03T09:01:43;103031.59;;;16.82;59.73
77161;BME280;66135;0.000;0.000;2023-04-03T09:04:14;103032.66;;;16.79;59.89
77161;BME280;66135;0.000;0.000;2023-04-03T09:06:43;103030.94;;;16.78;59.97
77161;BME280;66135;0.000;0.000;2023-04-03T09:09:41;103032.53;;;16.81;59.92
77161;BME280;66135;0.000;0.000;2023-04-03T09:17:59;103034.59;;;16.77;59.99
77161;BME280;66135;0.000;0.000;2023-04-03T09:23:27;103034.72;;;16.76;59.89
77161;BME280;66135;0.000;0.000;2023-04-03T09:26:01;103032.88;;;16.76;59.98
77161;BME280;66135;0.000;0.000;2023-04-03T09:28:32;103039.19;;;16.77;59.93
77161;BME280;66135;0.000;0.000;2023-04-03T09:31:00;103038.19;;;16.78;59.96
77161;BME280;66135;0.000;0.000;2023-04-03T09:33:27;103039.19;;;16.77;60.07
77161;BME280;66135;0.000;0.000;2023-04-03T09:35:55;103040.78;;;16.79;59.89
77161;BME280;66135;0.000;0.000;2023-04-03T09:38:21;103050.66;;;16.80;60.03
77161;BME280;66135;0.000;0.000;2023-04-03T09:41:04;103043.47;;;16.79;60.06
77161;BME280;66135;0.000;0.000;2023-04-03T09:43:32;103024.53;;;16.79;60.14
77161;BME280;66135;0.000;0.000;2023-04-03T09:49:15;103026.50;;;16.77;60.02
77161;BME280;66135;0.000;0.000;2023-04-03T09:51:40;103029.19;;;16.77;60.08
77161;BME280;66135;0.000;0.000;2023-04-03T09:57:11;103021.31;;;16.74;60.05
77161;BME280;66135;0.000;0.000;2023-04-03T09:59:44;103013.19;;;16.74;60.07
77161;BME280;66135;0.000;0.000;2023-04-03T10:02:32;103012.31;;;16.74;60.27
77161;BME280;66135;0.000;0.000;2023-04-03T10:04:59;103014.91;;;16.75;60.13
77161;BME280;66135;0.000;0.000;2023-04-03T10:07:38;103005.81;;;16.76;59.87
77161;BME280;66135;0.000;0.000;2023-04-03T10:10:23;103006.78;;;16.75;60.13
77161;BME280;66135;0.000;0.000;2023-04-03T10:13:27;103003.00;;;16.78;60.02
77161;BME280;66135;0.000;0.000;2023-04-03T10:16:12;103002.13;;;16.77;60.09
77161;BME280;66135;0.000;0.000;2023-04-03T10:18:48;103003.75;;;16.80;60.04
77161;BME280;66135;0.000;0.000;2023-04-03T10:21:36;103003.75;;;16.80;60.11
77161;BME280;66135;0.000;0.000;2023-04-03T10:32:15;103008.59;;;16.88;60.00
77161;BME280;66135;0.000;0.000;2023-04-03T10:35:06;102988.66;;;16.88;60.30
77161;BME280;66135;0.000;0.000;2023-04-03T10:43:33;102983.53;;;16.97;60.36
77161;BME280;66135;0.000;0.000;2023-04-03T10:46:15;102979.84;;;16.98;60.26
77161;BME280;66135;0.000;0.000;2023-04-03T10:53:57;102961.41;;;17.03;60.37
77161;BME280;66135;0.000;0.000;2023-04-03T10:56:46;102964.75;;;17.06;60.27
77161;BME280;66135;0.000;0.000;2023-04-03T10:59:14;102962.03;;;17.06;60.41
77161;BME280;66135;0.000;0.000;2023-04-03T11:01:45;102966.47;;;17.07;60.41
77161;BME280;66135;0.000;0.000;2023-04-03T11:04:12;102965.50;;;17.08;60.68
77161;BME280;66135;0.000;0.000;2023-04-03T11:06:57;102966.34;;;17.09;60.67
77161;BME280;66135;0.000;0.000;2023-04-03T11:09:30;102956.38;;;17.09;60.60
77161;BME280;66135;0.000;0.000;2023-04-03T11:12:12;102948.28;;;17.09;60.84
77161;BME280;66135;0.000;0.000;2023-04-03T11:14:40;102958.22;;;17.09;60.84
77161;BME280;66135;0.000;0.000;2023-04-03T11:20:27;102945.44;;;17.11;60.90
77161;BME280;66135;0.000;0.000;2023-04-03T11:22:36;102958.00;;;17.12;60.84
77161;BME280;66135;0.000;0.000;2023-04-03T11:27:50;102944.47;;;17.12;61.00
77161;BME280;66135;0.000;0.000;2023-04-03T11:30:32;102947.06;;;17.13;61.13
77161;BME280;66135;0.000;0.000;2023-04-03T11:35:47;102933.53;;;17.13;61.25
77161;BME280;66135;0.000;0.000;2023-04-03T11:38:25;102937.09;;;17.14;61.16
77161;BME280;66135;0.000;0.000;2023-04-03T11:40:54;102937.09;;;17.14;61.32
77161;BME280;66135;0.000;0.000;2023-04-03T11:43:28;102915.53;;;17.12;61.15
77161;BME280;66135;0.000;0.000;2023-04-03T11:45:58;102934.38;;;17.14;61.12
77161;BME280;66135;0.000;0.000;2023-04-03T11:53:41;102914.56;;;17.13;61.47
77161;BME280;66135;0.000;0.000;2023-04-03T11:56:28;102916.41;;;17.13;61.55
77161;BME280;66135;0.000;0.000;2023-04-03T12:01:55;102909.16;;;17.13;61.48
77161;BME280;66135;0.000;0.000;2023-04-03T12:04:24;102909.03;;;17.15;61.64
77161;BME280;66135;0.000;0.000;2023-04-03T12:06:59;102908.16;;;17.14;61.42
77161;BME280;66135;0.000;0.000;2023-04-03T12:09:30;102906.31;;;17.15;61.47
77161;BME280;66135;0.000;0.000;2023-04-03T12:11:59;102906.31;;;17.15;61.66
77161;BME280;66135;0.000;0.000;2023-04-03T12:14:26;102902.72;;;17.14;61.63
77161;BME280;66135;0.000;0.000;2023-04-03T12:16:56;102901.91;;;17.14;61.61
77161;BME280;66135;0.000;0.000;2023-04-03T12:19:38;102899.19;;;17.14;61.86
77161;BME280;66135;0.000;0.000;2023-04-03T12:22:16;102896.47;;;17.14;61.86
77161;BME280;66135;0.000;0.000;2023-04-03T12:24:47;102890.19;;;17.13;61.79
77161;BME280;66135;0.000;0.000;2023-04-03T12:35:28;102893.03;;;17.12;61.92
77161;BME280;66135;0.000;0.000;2023-04-03T12:43:32;102893.16;;;17.10;61.97
77161;BME280;66135;0.000;0.000;2023-04-03T12:48:38;102885.22;;;17.07;61.66
77161;BME280;66135;0.000;0.000;2023-04-03T12:51:03;102867.28;;;17.06;61.78
77161;BME280;66135;0.000;0.000;2023-04-03T12:53:35;102863.69;;;17.06;61.69
77161;BME280;66135;0.000;0.000;2023-04-03T12:56:24;102860.03;;;17.07;61.90
77161;BME280;66135;0.000;0.000;2023-04-03T12:58:51;102859.28;;;17.05;61.81
77161;BME280;66135;0.000;0.000;2023-04-03T13:01:21;102854.81;;;17.04;61.94
77161;BME280;66135;0.000;0.000;2023-04-03T13:03:54;102845.84;;;17.03;61.92
77161;BME280;66135;0.000;0.000;2023-04-03T13:06:21;102851.28;;;17.03;61.90
77161;BME280;66135;0.000;0.000;2023-04-03T13:08:56;102854.06;;;17.02;61.88
77161;BME280;66135;0.000;0.000;2023-04-03T15:55:58;102770.56;;;17.52;61.16
77161;BME280;66135;0.000;0.000;2023-04-03T15:58:24;102761.06;;;17.58;61.21
77161;BME280;66135;0.000;0.000;2023-04-03T16:00:50;102771.56;;;17.62;61.00
77161;BME280;66135;0.000;0.000;2023-04-03T16:03:18;102775.72;;;17.66;60.72
77161;BME280;66135;0.000;0.000;2023-04-03T16:05:44;102768.31;;;17.68;60.74
77161;BME280;66135;0.000;0.000;2023-04-03T16:08:10;102777.94;;;17.72;60.76
77161;BME280;66135;0.000;0.000;2023-04-03T16:10:35;102782.13;;;17.76;60.88
77161;BME280;66135;0.000;0.000;2023-04-03T16:13:02;102773.41;;;17.73;60.96
77161;BME280;66135;0.000;0.000;2023-04-03T16:15:27;102771.53;;;17.73;60.90
77161;BME280;66135;0.000;0.000;2023-04-03T16:17:53;102776.81;;;17.75;60.85
77161;BME280;66135;0.000;0.000;2023-04-03T16:20:19;102766.84;;;17.75;60.79
77161;BME280;66135;0.000;0.000;2023-04-03T16:22:47;102786.91;;;17.84;60.68
77161;BME280;66135;0.000;0.000;2023-04-03T16:25:13;102799.84;;;17.91;60.38
77161;BME280;66135;0.000;0.000;2023-04-03T16:27:39;102773.34;;;17.95;60.38
77161;BME280;66135;0.000;0.000;2023-04-03T16:30:06;102784.19;;;17.95;60.21
77161;BME280;66135;0.000;0.000;2023-04-03T16:32:32;102784.19;;;17.95;60.48
77161;BME280;66135;0.000;0.000;2023-04-03T16:34:58;102784.91;;;17.97;60.46
77161;BME280;66135;0.000;0.000;2023-04-03T16:37:23;102784.78;;;17.98;60.40
77161;BME280;66135;0.000;0.000;2023-04-03T16:39:49;102784.78;;;17.98;60.12
77161;BME280;66135;0.000;0.000;2023-04-03T16:42:14;102779.38;;;17.98;60.33
77161;BME280;66135;0.000;0.000;2023-04-03T16:44:40;102786.91;;;17.95;60.42
77161;BME280;66135;0.000;0.000;2023-04-03T16:47:06;102785.75;;;17.97;60.48
77161;BME280;66135;0.000;0.000;2023-04-03T16:49:33;102788.47;;;17.97;60.25
77161;BME280;66135;0.000;0.000;2023-04-03T16:52:00;102784.78;;;17.98;60.22
77161;BME280;66135;0.000;0.000;2023-04-03T16:54:26;102795.00;;;18.06;60.24
77161;BME280;66135;0.000;0.000;2023-04-03T16:56:51;102785.59;;;18.10;59.93
77161;BME280;66135;0.000;0.000;2023-04-03T16:59:17;102787.81;;;18.16;59.74
77161;BME280;66135;0.000;0.000;2023-04-03T17:01:42;102787.56;;;18.19;59.67
77161;BME280;66135;0.000;0.000;2023-04-03T17:04:08;102785.84;;;18.18;59.64
77161;BME280;66135;0.000;0.000;2023-04-03T17:06:34;102787.56;;;18.19;59.80
77161;BME280;66135;0.000;0.000;2023-04-03T17:09:00;102791.28;;;18.18;59.69
77161;BME280;66135;0.000;0.000;2023-04-03T17:11:26;102787.81;;;18.16;59.78